Time;durP1;ratioP1;P1;durP2;ratioP2;P2;SDS_P1;SDS_P2;PMS_P1;PMS_P2;Temp;Humidity;BMP_temperature;BMP_pressure;BME280_temperature;BME280_humidity;BME280_pressure;Samples;Min_cycle;Max_cycle;Signal;HPM_P1;HPM_P2
2021/11/06 00:00:25;;;;;;;8.23;6.72;;;;;;;12.71;76.61;100760.48;1655069;85;21066;-66
2021/11/06 00:02:53;;;;;;;5.80;4.83;;;;;;;12.65;76.34;100754.86;1651012;85;21581;-66
2021/11/06 00:05:19;;;;;;;6.47;5.85;;;;;;;12.65;75.66;100774.92;1645431;86;21104;-67
2021/11/06 00:07:45;;;;;;;;;;;;;;;12.59;75.31;100774.36;1654877;85;21121;-66
2021/11/06 00:10:13;;;;;;;6.08;4.33;;;;;;;12.48;74.66;100780.73;1665234;84;20133;-67
2021/11/06 00:12:40;;;;;;;7.05;4.87;;;;;;;12.33;74.66;100800.30;1676649;83;21335;-67
2021/11/06 00:15:08;;;;;;;5.20;4.28;;;;;;;12.21;74.34;100791.95;1680240;84;21045;-67
2021/11/06 00:17:37;;;;;;;4.22;3.83;;;;;;;12.14;73.36;100798.23;1680344;84;21101;-66
2021/11/06 00:20:07;;;;;;;4.05;3.75;;;;;;;12.12;73.63;100797.59;1684071;84;21147;-65
2021/11/06 00:22:33;;;;;;;4.80;3.90;;;;;;;12.13;73.35;100798.76;1680397;84;21118;-66
2021/11/06 00:25:05;;;;;;;4.55;4.12;;;;;;;12.12;73.29;100797.08;1645135;85;21025;-66
2021/11/06 00:27:32;;;;;;;5.20;4.80;;;;;;;12.05;73.49;100793.50;1638172;85;21030;-66
2021/11/06 00:29:59;;;;;;;5.75;4.42;;;;;;;12.00;73.70;100791.40;1643045;85;21018;-65
2021/11/06 00:32:25;;;;;;;4.33;3.92;;;;;;;11.96;73.39;100798.14;1642179;85;21131;-66
2021/11/06 00:34:53;;;;;;;4.25;3.85;;;;;;;11.92;73.00;100796.00;1653935;85;21013;-66
2021/11/06 00:37:19;;;;;;;3.65;3.35;;;;;;;11.90;73.12;100794.03;1658401;85;21129;-66
2021/11/06 00:39:45;;;;;;;3.95;3.30;;;;;;;11.88;73.52;100795.03;1655560;84;21088;-66
2021/11/06 00:42:12;;;;;;;5.60;4.45;;;;;;;11.82;73.64;100798.42;1645178;86;21071;-67
2021/11/06 00:44:38;;;;;;;5.42;3.30;;;;;;;11.72;74.00;100795.21;1653037;84;21054;-66
2021/11/06 00:47:04;;;;;;;;;;;;;;;11.65;74.20;100798.30;1645997;85;21147;-67
2021/11/06 00:49:30;;;;;;;4.72;3.85;;;;;;;11.59;75.40;100801.70;1671979;84;20130;-67
2021/11/06 00:51:57;;;;;;;3.65;3.37;;;;;;;11.50;75.78;100808.45;1677026;84;21035;-69
2021/11/06 00:54:23;;;;;;;3.85;3.50;;;;;;;11.49;75.61;100808.14;1683369;84;21014;-66
2021/11/06 00:56:49;;;;;;;3.62;3.35;;;;;;;11.50;75.35;100808.45;1661776;84;21564;-68
2021/11/06 00:59:16;;;;;;;3.85;3.55;;;;;;;11.43;75.75;100820.89;1623076;87;21026;-67
2021/11/06 01:01:44;;;;;;;;;;;;;;;11.32;76.58;100822.67;1647095;85;21048;-67
2021/11/06 01:04:10;;;;;;;;;;;;;;;11.24;77.06;100824.88;1644254;86;20178;-67
2021/11/06 01:06:36;;;;;;;3.83;3.50;;;;;;;11.10;77.61;100815.84;1660912;84;20411;-66
2021/11/06 01:09:03;;;;;;;5.17;3.60;;;;;;;11.05;77.53;100820.88;1673575;84;21097;-67
2021/11/06 01:11:31;;;;;;;5.10;3.73;;;;;;;11.05;77.35;100810.20;1674977;84;21061;-67
2021/11/06 01:13:58;;;;;;;3.87;3.50;;;;;;;11.00;77.80;100804.60;1668197;84;21088;-68
2021/11/06 01:16:24;;;;;;;3.70;3.40;;;;;;;10.89;78.12;100806.36;1672376;84;21029;-67
2021/11/06 01:18:52;;;;;;;3.70;3.40;;;;;;;10.81;78.59;100809.92;1676270;83;21113;-69
2021/11/06 01:21:18;;;;;;;4.22;3.92;;;;;;;10.79;78.89;100809.24;1688341;83;21014;-66
2021/11/06 01:23:44;;;;;;;;;;;;;;;10.82;78.83;100826.23;1674247;83;20969;-67
2021/11/06 01:26:10;;;;;;;3.17;2.90;;;;;;;10.84;79.04;100825.55;1670484;83;20125;-67
2021/11/06 01:28:37;;;;;;;3.25;2.75;;;;;;;10.77;79.08;100826.44;1681604;84;21172;-67
2021/11/06 01:31:03;;;;;;;3.90;3.45;;;;;;;10.66;78.87;100823.19;1670058;84;20990;-67
2021/11/06 01:33:31;;;;;;;2.97;2.60;;;;;;;10.59;78.84;100822.74;1672877;84;21124;-66
2021/11/06 01:35:57;;;;;;;3.98;3.67;;;;;;;10.51;78.72;100833.77;1680039;84;21060;-66
2021/11/06 01:38:23;;;;;;;4.55;3.22;;;;;;;10.54;79.07;100841.09;1668139;84;21537;-66
2021/11/06 01:40:50;;;;;;;2.42;2.17;;;;;;;10.59;78.90;100848.89;1671440;83;21579;-68
2021/11/06 01:43:17;;;;;;;3.57;3.00;;;;;;;10.58;77.50;100852.55;1681293;84;21048;-66
2021/11/06 01:45:43;;;;;;;4.42;2.80;;;;;;;10.56;77.53;100851.89;1685458;84;21005;-65
2021/11/06 01:48:09;;;;;;;;;;;;;;;10.52;76.88;100856.74;1672495;83;21592;-66
2021/11/06 01:50:37;;;;;;;2.95;2.75;;;;;;;10.49;75.41;100859.78;1642899;85;20154;-65
2021/11/06 01:53:03;;;;;;;;;;;;;;;10.41;75.91;100857.64;1676575;83;21512;-69
2021/11/06 01:55:30;;;;;;;4.40;2.67;;;;;;;10.42;75.85;100851.33;1674949;84;20431;-65
2021/11/06 01:57:57;;;;;;;2.87;2.43;;;;;;;10.48;76.01;100870.61;1688386;84;21053;-65
2021/11/06 02:00:27;;;;;;;3.73;2.10;;;;;;;10.54;75.22;100882.41;1643416;84;21020;-66
2021/11/06 02:02:53;;;;;;;2.63;2.43;;;;;;;10.53;74.99;100876.25;1688047;83;21030;-66
2021/11/06 02:05:20;;;;;;;2.52;2.40;;;;;;;10.47;75.37;100887.11;1705810;83;21578;-67
2021/11/06 02:07:46;;;;;;;;;;;;;;;10.42;75.58;100884.13;1699363;83;21156;-65
2021/11/06 02:10:15;;;;;;;5.17;3.07;;;;;;;10.37;75.46;100885.14;1696092;83;20157;-65
2021/11/06 02:12:42;;;;;;;2.60;2.40;;;;;;;10.32;75.64;100889.67;1684117;83;21568;-67
2021/11/06 02:15:13;;;;;;;3.37;2.60;;;;;;;10.38;75.44;100890.81;1665872;85;21070;-66
2021/11/06 02:17:42;;;;;;;3.10;2.80;;;;;;;10.38;75.27;100900.63;1677974;84;21555;-66
2021/11/06 02:20:10;;;;;;;2.53;2.43;;;;;;;10.29;75.24;100904.63;1661299;85;20992;-66
2021/11/06 02:22:36;;;;;;;3.37;3.10;;;;;;;10.24;75.73;100902.98;1679970;83;21006;-65
2021/11/06 02:25:04;;;;;;;2.90;2.70;;;;;;;10.19;75.75;100912.01;1674192;84;21176;-66
2021/11/06 02:27:32;;;;;;;2.60;2.40;;;;;;;10.19;76.26;100918.67;1701521;83;21399;-66
2021/11/06 02:29:58;;;;;;;3.43;3.13;;;;;;;10.18;75.03;100923.66;1702053;84;21038;-69
2021/11/06 02:32:24;;;;;;;3.70;3.00;;;;;;;10.13;76.17;100931.31;1699386;83;21026;-65
2021/11/06 02:34:51;;;;;;;3.42;3.02;;;;;;;10.05;76.42;100931.34;1702019;83;21057;-65
2021/11/06 02:37:18;;;;;;;2.90;2.50;;;;;;;10.00;76.23;100938.53;1698312;83;21501;-67
2021/11/06 02:39:45;;;;;;;3.47;2.60;;;;;;;9.96;76.86;100935.03;1666923;85;21097;-68
2021/11/06 02:42:10;;;;;;;3.20;2.23;;;;;;;10.01;76.56;100946.02;1686739;83;20986;-68
2021/11/06 02:44:37;;;;;;;6.97;2.92;;;;;;;10.06;76.13;100941.02;1676431;83;21070;-67
2021/11/06 02:47:05;;;;;;;5.37;2.73;;;;;;;10.07;76.17;100950.14;1660188;85;21134;-67
2021/11/06 02:49:32;;;;;;;5.43;3.43;;;;;;;10.06;76.42;100959.16;1644744;86;21113;-67
2021/11/06 02:51:59;;;;;;;3.37;3.17;;;;;;;10.01;76.71;100962.81;1675138;84;21030;-66
2021/11/06 02:54:26;;;;;;;3.47;3.27;;;;;;;9.93;75.73;100969.50;1659389;86;21058;-67
2021/11/06 02:56:52;;;;;;;3.42;3.22;;;;;;;9.82;76.49;100956.02;1654051;84;21065;-65
2021/11/06 02:59:19;;;;;;;3.40;2.70;;;;;;;9.75;77.07;100967.83;1669631;84;21129;-66
2021/11/06 03:01:45;;;;;;;4.10;3.55;;;;;;;9.75;77.23;100974.48;1679939;84;21509;-67
2021/11/06 03:04:12;;;;;;;;;;;;;;;9.68;75.87;100977.50;1678782;84;21504;-67
2021/11/06 03:06:40;;;;;;;5.23;4.10;;;;;;;9.53;76.97;100973.82;1690241;84;20106;-66
2021/11/06 03:09:08;;;;;;;3.83;3.63;;;;;;;9.30;77.52;100976.30;1676554;84;21043;-66
2021/11/06 03:11:36;;;;;;;4.60;4.27;;;;;;;9.18;77.77;100984.28;1659687;85;21026;-67
2021/11/06 03:14:06;;;;;;;4.13;3.83;;;;;;;9.18;78.04;100989.09;1703641;83;21017;-65
2021/11/06 03:16:38;;;;;;;4.40;4.00;;;;;;;9.22;78.42;100990.42;1670488;84;21068;-65
2021/11/06 03:19:04;;;;;;;7.13;4.83;;;;;;;9.23;78.46;100989.44;1671232;84;21133;-66
2021/11/06 03:21:30;;;;;;;7.53;5.10;;;;;;;9.24;79.12;100995.59;1663558;84;21030;-66
2021/11/06 03:23:58;;;;;;;6.37;5.87;;;;;;;9.20;79.27;100994.25;1677063;81;21084;-65
2021/11/06 03:26:24;;;;;;;6.27;5.67;;;;;;;9.15;79.26;100991.59;1672963;84;21576;-67
2021/11/06 03:28:50;;;;;;;7.62;5.50;;;;;;;9.13;79.69;100988.23;1676026;86;21145;-66
2021/11/06 03:31:17;;;;;;;6.75;6.00;;;;;;;9.20;79.80;100984.95;1663341;85;22083;-65
2021/11/06 03:33:45;;;;;;;9.87;7.10;;;;;;;9.27;79.96;100980.64;1680564;84;21166;-66
2021/11/06 03:36:11;;;;;;;7.53;6.80;;;;;;;9.26;79.10;100973.64;1687453;83;20991;-69
2021/11/06 03:38:38;;;;;;;8.83;7.20;;;;;;;9.16;79.29;100967.97;1692968;83;21045;-67
2021/11/06 03:41:03;;;;;;;;;;;;;;;9.08;79.49;100962.65;1698577;83;21057;-67
2021/11/06 03:43:29;;;;;;;6.73;5.77;;;;;;;9.01;79.72;100951.50;1695244;83;20149;-67
2021/11/06 03:45:55;;;;;;;8.68;6.50;;;;;;;8.98;80.24;100953.97;1666539;83;20985;-65
2021/11/06 03:48:22;;;;;;;6.20;5.37;;;;;;;9.01;80.39;100950.99;1660495;85;21044;-66
2021/11/06 03:50:48;;;;;;;6.05;5.55;;;;;;;9.05;80.37;100965.63;1664141;85;21536;-67
2021/11/06 03:53:14;;;;;;;6.12;5.53;;;;;;;9.05;80.28;100972.27;1667312;85;21044;-67
2021/11/06 03:55:40;;;;;;;7.20;6.50;;;;;;;9.02;80.68;100973.09;1664811;85;21519;-68
2021/11/06 03:58:06;;;;;;;8.58;7.62;;;;;;;8.98;80.76;100977.08;1663861;85;21344;-67
2021/11/06 04:00:33;;;;;;;6.60;6.00;;;;;;;8.99;80.88;100977.42;1662352;85;21595;-67
2021/11/06 04:02:59;;;;;;;8.23;7.43;;;;;;;9.08;80.74;100957.80;1647837;87;21591;-70
2021/11/06 04:05:27;;;;;;;7.45;6.80;;;;;;;9.06;79.29;100969.95;1647150;86;21023;-67
2021/11/06 04:07:53;;;;;;;7.73;6.97;;;;;;;9.00;80.07;100979.07;1647634;86;21679;-68
2021/11/06 04:10:19;;;;;;;8.93;7.45;;;;;;;8.95;80.60;100968.94;1644429;86;21114;-66
2021/11/06 04:12:46;;;;;;;9.90;8.90;;;;;;;8.94;80.83;100972.58;1652418;84;21002;-67
2021/11/06 04:15:14;;;;;;;8.15;7.45;;;;;;;8.98;79.92;100978.41;1659384;86;21533;-67
2021/11/06 04:17:41;;;;;;;7.60;6.90;;;;;;;9.03;79.75;100977.42;1664712;85;21120;-68
2021/11/06 04:20:09;;;;;;;7.20;6.50;;;;;;;9.06;79.48;100981.92;1659451;86;21085;-67
2021/11/06 04:22:36;;;;;;;7.73;6.90;;;;;;;9.06;79.11;100978.41;1653224;83;21509;-65
2021/11/06 04:25:05;;;;;;;7.40;6.60;;;;;;;8.99;79.40;100983.56;1695049;83;21085;-68
2021/11/06 04:27:32;;;;;;;7.20;6.50;;;;;;;8.96;78.41;100986.53;1684206;83;21161;-66
2021/11/06 04:29:58;;;;;;;6.60;6.10;;;;;;;8.95;79.17;100977.73;1684104;83;21022;-74
2021/11/06 04:32:25;;;;;;;6.20;5.70;;;;;;;9.02;79.84;100975.75;1674581;85;22164;-66
2021/11/06 04:34:51;;;;;;;6.12;5.25;;;;;;;9.04;79.57;100967.97;1699339;83;20983;-67
2021/11/06 04:37:17;;;;;;;6.05;5.55;;;;;;;9.04;79.15;100968.44;1695200;83;21030;-66
2021/11/06 04:39:43;;;;;;;6.17;5.67;;;;;;;8.96;78.32;100962.61;1695605;83;21120;-67
2021/11/06 04:42:10;;;;;;;5.53;5.05;;;;;;;8.89;78.34;100973.55;1696225;83;21073;-66
2021/11/06 04:44:36;;;;;;;5.75;5.25;;;;;;;8.86;78.27;100985.85;1692540;83;20998;-66
2021/11/06 04:47:03;;;;;;;7.25;5.53;;;;;;;8.88;78.23;100990.51;1694003;83;21047;-70
2021/11/06 04:49:29;;;;;;;4.50;4.10;;;;;;;8.88;76.53;100989.18;1688354;84;21196;-67
2021/11/06 04:51:55;;;;;;;5.47;5.03;;;;;;;8.84;76.01;100975.88;1692456;83;21030;-66
2021/11/06 04:54:21;;;;;;;5.65;4.90;;;;;;;8.76;76.02;100976.69;1686514;84;21003;-65
2021/11/06 04:56:50;;;;;;;6.50;5.60;;;;;;;8.71;76.97;100980.31;1691517;83;21059;-66
2021/11/06 04:59:17;;;;;;;5.53;5.00;;;;;;;8.74;77.25;100975.52;1690324;83;21160;-66
2021/11/06 05:01:44;;;;;;;4.63;4.20;;;;;;;8.84;77.61;100978.03;1674137;84;21066;-67
2021/11/06 05:04:10;;;;;;;5.17;4.77;;;;;;;8.93;77.42;100989.03;1677050;84;21561;-67
2021/11/06 05:06:37;;;;;;;9.85;4.28;;;;;;;8.98;77.14;100999.17;1676939;83;21088;-66
2021/11/06 05:09:03;;;;;;;5.90;4.47;;;;;;;8.95;77.12;101001.66;1685173;84;21073;-66
2021/11/06 05:11:29;;;;;;;;;;;;;;;8.92;76.45;100987.86;1693672;83;21043;-66
2021/11/06 05:13:58;;;;;;;5.67;3.80;;;;;;;8.88;76.59;100997.16;1694909;83;20430;-65
2021/11/06 05:16:26;;;;;;;5.60;4.07;;;;;;;8.91;76.71;101004.79;1679869;84;21158;-66
2021/11/06 05:18:54;;;;;;;4.60;4.13;;;;;;;9.03;76.56;101013.33;1676569;83;21701;-66
2021/11/06 05:21:22;;;;;;;2.90;2.60;;;;;;;9.09;75.69;101017.48;1679465;84;21569;-67
2021/11/06 05:23:49;;;;;;;3.57;3.37;;;;;;;9.12;75.26;101019.83;1671089;84;21041;-67
2021/11/06 05:26:16;;;;;;;4.50;4.10;;;;;;;9.12;74.79;101023.82;1684406;85;21037;-66
2021/11/06 05:28:43;;;;;;;5.47;4.23;;;;;;;9.13;74.31;101022.81;1672689;84;21020;-69
2021/11/06 05:31:10;;;;;;;5.07;4.00;;;;;;;9.16;74.83;101020.34;1674840;84;21171;-67
2021/11/06 05:33:37;;;;;;;3.97;3.67;;;;;;;9.22;73.85;101014.36;1670272;84;21098;-68
2021/11/06 05:36:04;;;;;;;3.90;3.60;;;;;;;9.29;72.69;101023.87;1679671;83;21089;-69
2021/11/06 05:38:30;;;;;;;5.10;4.60;;;;;;;9.24;73.15;101030.17;1671506;84;21073;-70
2021/11/06 05:40:57;;;;;;;4.50;4.20;;;;;;;9.14;73.67;101023.16;1682297;84;21074;-67
2021/11/06 05:43:23;;;;;;;4.40;4.10;;;;;;;9.13;73.93;101031.30;1683350;83;21038;-67
2021/11/06 05:45:49;;;;;;;4.67;4.28;;;;;;;9.11;74.08;101028.79;1679493;85;21118;-66
2021/11/06 05:48:15;;;;;;;4.55;4.15;;;;;;;9.10;73.96;101029.80;1683576;84;21130;-68
2021/11/06 05:50:41;;;;;;;3.92;3.62;;;;;;;9.16;73.86;101032.31;1691293;84;20992;-67
2021/11/06 05:53:07;;;;;;;4.83;4.42;;;;;;;9.26;73.64;101038.31;1683025;84;21716;-66
2021/11/06 05:55:33;;;;;;;6.58;4.37;;;;;;;9.31;73.62;101033.34;1677425;84;21135;-68
2021/11/06 05:58:00;;;;;;;5.42;5.00;;;;;;;9.32;72.97;101031.50;1684056;84;21595;-66
2021/11/06 06:00:26;;;;;;;6.15;4.55;;;;;;;9.32;71.93;101029.70;1674057;84;20985;-67
2021/11/06 06:02:52;;;;;;;5.08;4.62;;;;;;;9.28;71.12;101028.34;1686327;83;21074;-67
2021/11/06 06:05:19;;;;;;;4.78;4.37;;;;;;;9.24;71.74;101032.83;1692449;83;21027;-66
2021/11/06 06:07:46;;;;;;;3.30;3.10;;;;;;;9.23;71.87;101038.66;1686630;84;21144;-68
2021/11/06 06:10:15;;;;;;;5.87;4.05;;;;;;;9.24;71.29;101048.28;1685857;84;21079;-69
2021/11/06 06:12:44;;;;;;;4.80;3.90;;;;;;;9.32;71.60;101042.15;1680454;84;21013;-67
2021/11/06 06:15:13;;;;;;;3.90;3.60;;;;;;;9.35;71.26;101036.52;1680980;83;21133;-67
2021/11/06 06:17:39;;;;;;;4.90;4.55;;;;;;;9.38;71.17;101038.86;1686910;83;21019;-67
2021/11/06 06:20:10;;;;;;;4.57;4.20;;;;;;;9.38;70.96;101051.31;1689064;84;21097;-69
2021/11/06 06:22:38;;;;;;;5.63;4.67;;;;;;;9.35;70.82;101060.45;1678316;83;21016;-68
2021/11/06 06:25:07;;;;;;;4.27;3.97;;;;;;;9.30;70.77;101065.42;1675495;84;21112;-67
2021/11/06 06:27:34;;;;;;;5.33;4.93;;;;;;;9.30;70.61;101061.44;1636212;86;21553;-68
2021/11/06 06:30:01;;;;;;;6.07;4.40;;;;;;;9.32;70.67;101062.95;1621993;86;21097;-69
2021/11/06 06:32:27;;;;;;;3.93;3.63;;;;;;;9.43;70.32;101073.77;1629369;86;21049;-67
2021/11/06 06:34:53;;;;;;;6.80;4.05;;;;;;;9.55;69.46;101069.82;1648713;84;21560;-68
2021/11/06 06:37:19;;;;;;;4.03;3.65;;;;;;;9.65;69.25;101062.19;1660900;86;21759;-68
2021/11/06 06:39:46;;;;;;;6.97;3.85;;;;;;;9.71;69.81;101072.98;1638028;85;21509;-67
2021/11/06 06:42:13;;;;;;;4.43;4.13;;;;;;;9.80;68.60;101077.84;1647930;85;21532;-68
2021/11/06 06:44:39;;;;;;;4.60;4.20;;;;;;;9.85;68.10;101075.52;1644665;84;21517;-71
2021/11/06 06:47:05;;;;;;;5.95;4.22;;;;;;;9.93;67.91;101080.84;1671469;85;21498;-66
2021/11/06 06:49:31;;;;;;;;;;;;;;;9.99;67.39;101078.52;1676815;85;21091;-67
2021/11/06 06:51:57;;;;;;;4.80;4.20;;;;;;;10.01;67.47;101070.69;1669322;85;20113;-68
2021/11/06 06:54:23;;;;;;;4.75;4.30;;;;;;;10.01;67.45;101072.02;1663598;86;21025;-68
2021/11/06 06:56:51;;;;;;;4.47;4.08;;;;;;;10.13;67.15;101073.36;1642271;85;21080;-69
2021/11/06 06:59:17;;;;;;;5.53;5.03;;;;;;;10.22;66.33;101074.16;1636614;86;21030;-69
2021/11/06 07:01:45;;;;;;;6.05;5.22;;;;;;;10.24;66.33;101079.33;1636134;86;21065;-71
2021/11/06 07:04:11;;;;;;;4.93;4.47;;;;;;;10.24;65.50;101078.82;1666874;85;21097;-70
2021/11/06 07:06:38;;;;;;;5.67;5.17;;;;;;;10.29;66.16;101083.66;1668131;86;21093;-68
2021/11/06 07:09:05;;;;;;;8.38;6.42;;;;;;;10.34;65.31;101085.36;1685517;83;21052;-70
2021/11/06 07:11:33;;;;;;;7.27;6.57;;;;;;;10.30;65.63;101086.20;1689421;83;21063;-70
2021/11/06 07:13:59;;;;;;;11.40;7.17;;;;;;;10.29;65.33;101093.81;1702460;83;21575;-70
2021/11/06 07:16:25;;;;;;;7.55;6.78;;;;;;;10.36;65.03;101098.02;1693308;83;20993;-70
2021/11/06 07:18:51;;;;;;;7.10;6.40;;;;;;;10.43;64.67;101087.50;1700305;83;21485;-70
2021/11/06 07:21:17;;;;;;;8.15;7.35;;;;;;;10.46;64.54;101081.84;1702419;83;21537;-71
2021/11/06 07:23:43;;;;;;;8.75;7.15;;;;;;;10.48;64.08;101083.83;1699186;83;20997;-71
2021/11/06 07:26:09;;;;;;;8.83;6.75;;;;;;;10.49;64.49;101085.48;1695454;83;21578;-70
2021/11/06 07:28:37;;;;;;;7.40;5.83;;;;;;;10.46;63.33;101084.00;1686512;83;21580;-71
2021/11/06 07:31:03;;;;;;;7.22;6.03;;;;;;;10.51;64.03;101086.17;1701568;83;21039;-70
2021/11/06 07:33:29;;;;;;;5.55;4.95;;;;;;;10.57;63.88;101076.16;1700207;82;21185;-70
2021/11/06 07:35:55;;;;;;;6.60;6.00;;;;;;;10.58;63.33;101077.80;1697073;83;21059;-70
2021/11/06 07:38:22;;;;;;;7.40;6.00;;;;;;;10.60;62.97;101076.30;1678296;83;21060;-71
2021/11/06 07:40:48;;;;;;;7.97;5.08;;;;;;;10.62;63.19;101072.45;1701814;83;21110;-70
2021/11/06 07:43:14;;;;;;;5.58;5.17;;;;;;;10.64;62.86;101080.28;1701771;83;21091;-71
2021/11/06 07:45:42;;;;;;;6.67;6.07;;;;;;;10.63;63.42;101079.98;1700101;82;21494;-71
2021/11/06 07:48:08;;;;;;;;;;;;;;;10.67;63.52;101075.45;1688684;83;21124;-70
2021/11/06 07:50:34;;;;;;;7.73;6.90;;;;;;;10.70;62.72;101087.12;1694898;83;20140;-71
2021/11/06 07:53:01;;;;;;;8.28;7.53;;;;;;;10.67;63.38;101090.11;1686928;83;21012;-72
2021/11/06 07:55:27;;;;;;;7.40;6.50;;;;;;;10.69;63.47;101102.77;1688227;83;20957;-71
2021/11/06 07:57:54;;;;;;;9.70;7.17;;;;;;;10.70;62.79;101110.30;1681248;83;21052;-71
2021/11/06 08:00:21;;;;;;;8.40;6.85;;;;;;;10.70;62.52;101108.45;1678350;83;21056;-71
2021/11/06 08:02:47;;;;;;;7.40;5.67;;;;;;;10.70;62.39;101111.63;1635127;86;21121;-71
2021/11/06 08:05:17;;;;;;;10.53;7.08;;;;;;;10.67;62.53;101112.78;1640836;86;21110;-70
2021/11/06 08:07:43;;;;;;;9.60;6.57;;;;;;;10.65;62.29;101109.45;1635018;86;21529;-70
2021/11/06 08:10:11;;;;;;;6.37;5.77;;;;;;;10.66;62.83;101107.61;1643545;86;21611;-71
2021/11/06 08:12:39;;;;;;;6.00;5.50;;;;;;;10.71;62.43;101118.61;1664469;84;21104;-71
2021/11/06 08:15:09;;;;;;;7.53;6.40;;;;;;;10.77;61.95;101124.58;1700685;83;20982;-72
2021/11/06 08:17:35;;;;;;;6.53;5.47;;;;;;;10.81;61.79;101126.41;1703196;83;21053;-70
2021/11/06 08:20:04;;;;;;;6.05;5.42;;;;;;;10.80;61.72;101130.92;1692696;83;21014;-71
2021/11/06 08:23:22;;;;;;;7.17;5.40;;;;;;;10.86;61.62;101120.07;1759393;77;22632;-71
2021/11/06 08:25:49;;;;;;;10.78;5.97;;;;;;;10.86;60.64;101134.73;1695067;83;21309;-71
2021/11/06 08:28:16;;;;;;;6.73;6.07;;;;;;;10.84;60.57;101141.58;1686369;83;21137;-70
2021/11/06 08:30:43;;;;;;;8.50;7.05;;;;;;;10.85;60.56;101137.06;1692062;83;21391;-70
2021/11/06 08:33:10;;;;;;;6.10;5.60;;;;;;;10.82;60.77;101142.25;1687109;83;21037;-70
2021/11/06 08:35:38;;;;;;;6.50;5.73;;;;;;;10.82;59.91;101132.09;1707429;82;21563;-70
2021/11/06 08:38:05;;;;;;;6.83;5.60;;;;;;;10.82;60.47;101136.09;1707700;82;21559;-68
2021/11/06 08:40:31;;;;;;;6.28;5.78;;;;;;;10.84;60.02;101132.23;1709813;82;21068;-70
2021/11/06 08:42:58;;;;;;;6.42;5.83;;;;;;;10.90;59.83;101134.72;1712369;82;20997;-70
2021/11/06 08:45:24;;;;;;;6.97;6.30;;;;;;;10.93;59.40;101137.06;1719149;81;21005;-70
2021/11/06 08:47:51;;;;;;;6.08;5.42;;;;;;;10.82;58.77;101134.75;1715169;82;21481;-70
2021/11/06 08:50:22;;;;;;;;;;;;;;;10.74;59.62;101128.94;1717877;82;21519;-71
2021/11/06 08:52:51;;;;;;;9.77;6.23;;;;;;;10.74;59.88;101129.42;1725986;82;20191;-69
2021/11/06 08:55:19;;;;;;;6.77;6.07;;;;;;;10.71;60.27;101129.27;1716308;82;21053;-72
2021/11/06 08:57:45;;;;;;;7.33;6.57;;;;;;;10.78;60.69;101122.26;1727006;82;21121;-72
2021/11/06 09:00:20;;;;;;;8.45;6.37;;;;;;;10.87;59.96;101127.91;1728690;82;21021;-70
2021/11/06 09:02:45;;;;;;;6.20;5.63;;;;;;;10.94;59.32;101117.88;1685686;83;21034;-70
2021/11/06 09:05:11;;;;;;;7.03;6.25;;;;;;;10.95;58.37;101123.55;1657290;85;21011;-71
2021/11/06 09:07:38;;;;;;;6.05;5.55;;;;;;;10.95;58.12;101123.05;1656942;85;21108;-71
2021/11/06 09:10:11;;;;;;;8.27;6.20;;;;;;;10.97;58.15;101118.37;1693993;83;21044;-70
2021/11/06 09:12:37;;;;;;;6.60;5.00;;;;;;;11.04;58.16;101114.53;1670911;83;21037;-72
2021/11/06 09:15:06;;;;;;;10.55;4.47;;;;;;;11.13;58.23;101093.97;1687449;83;21045;-71
2021/11/06 09:17:33;;;;;;;10.30;4.73;;;;;;;11.23;56.37;101096.76;1660571;84;21041;-70
2021/11/06 09:20:00;;;;;;;7.97;4.50;;;;;;;11.26;55.30;101104.91;1690348;83;21101;-70
2021/11/06 09:22:26;;;;;;;5.05;3.12;;;;;;;11.22;55.13;101110.27;1664968;83;21042;-71
2021/11/06 09:24:54;;;;;;;7.40;3.98;;;;;;;11.17;54.84;101105.47;1696287;82;21029;-72
2021/11/06 09:27:21;;;;;;;5.75;3.83;;;;;;;11.10;55.38;101099.16;1689055;83;20977;-70
2021/11/06 09:29:49;;;;;;;3.95;3.40;;;;;;;11.09;55.27;101102.33;1693640;83;21105;-70
2021/11/06 09:32:16;;;;;;;4.37;3.83;;;;;;;11.10;55.54;101103.16;1690167;82;20965;-70
2021/11/06 09:34:42;;;;;;;4.65;4.25;;;;;;;11.13;55.63;101099.30;1684145;83;21008;-71
2021/11/06 09:37:09;;;;;;;;;;;;;;;11.14;55.54;101107.65;1676933;83;21021;-71
2021/11/06 09:39:36;;;;;;;6.90;4.43;;;;;;;11.14;55.90;101106.31;1692009;83;20519;-74
2021/11/06 09:42:04;;;;;;;5.57;4.33;;;;;;;11.08;56.18;101108.66;1695609;83;21466;-70
2021/11/06 09:44:34;;;;;;;5.17;3.43;;;;;;;11.08;56.00;101095.32;1687624;83;21037;-71
2021/11/06 09:47:00;;;;;;;4.13;3.70;;;;;;;11.09;55.38;101097.00;1683027;83;21041;-72
2021/11/06 09:49:26;;;;;;;7.28;3.75;;;;;;;11.08;55.45;101102.50;1692652;83;21521;-71
2021/11/06 09:51:53;;;;;;;6.37;4.35;;;;;;;11.09;55.63;101106.34;1696603;83;21470;-71
2021/11/06 09:54:19;;;;;;;5.10;3.73;;;;;;;11.13;55.55;101096.62;1696140;83;20961;-70
2021/11/06 09:56:45;;;;;;;;;;;;;;;11.13;55.04;101115.31;1677898;83;21140;-69
2021/11/06 09:59:11;;;;;;;7.33;4.10;;;;;;;11.07;55.98;101103.49;1669233;84;20470;-70
2021/11/06 10:01:37;;;;;;;5.17;4.03;;;;;;;10.98;55.85;101099.19;1674202;84;21540;-71
2021/11/06 10:04:08;;;;;;;4.37;3.67;;;;;;;10.95;55.99;101097.70;1667820;84;21097;-73
2021/11/06 10:06:48;;;;;;;7.73;4.57;;;;;;;10.98;56.26;101098.70;1661163;84;21350;-71
2021/11/06 10:09:11;;;;;;;6.90;4.73;;;;;;;11.05;56.29;101096.16;1664145;84;21584;-70
2021/11/06 10:11:41;;;;;;;5.37;4.20;;;;;;;11.14;56.26;101087.13;1658667;84;21032;-73
2021/11/06 10:14:16;;;;;;;4.63;3.93;;;;;;;11.19;55.62;101081.25;1662371;84;21031;-71
2021/11/06 10:16:55;;;;;;;8.90;3.83;;;;;;;11.23;55.62;101090.59;1670065;84;21545;-71
2021/11/06 10:19:28;;;;;;;4.53;4.13;;;;;;;11.26;54.84;101091.56;1657881;84;21028;-70
2021/11/06 10:22:17;;;;;;;4.50;4.20;;;;;;;11.27;54.66;101083.91;1655080;84;21093;-71
2021/11/06 10:24:51;;;;;;;2.97;2.77;;;;;;;11.23;54.25;101083.92;1667073;84;21556;-72
2021/11/06 10:27:28;;;;;;;4.37;3.97;;;;;;;11.16;54.64;101078.44;1665312;84;21543;-71
2021/11/06 10:30:16;;;;;;;4.42;4.03;;;;;;;11.21;54.82;101073.94;1658339;84;21076;-71
2021/11/06 10:32:58;;;;;;;4.63;4.03;;;;;;;11.26;54.77;101080.41;1652982;84;21140;-71
2021/11/06 10:35:28;;;;;;;4.93;4.43;;;;;;;11.23;54.39;101069.25;1659656;84;21021;-71
2021/11/06 10:38:09;;;;;;;3.93;3.63;;;;;;;11.15;54.43;101075.46;1666551;84;21088;-71
2021/11/06 10:40:46;;;;;;;6.12;4.45;;;;;;;11.11;54.96;101082.13;1663532;84;21084;-70
2021/11/06 10:43:17;;;;;;;4.47;4.00;;;;;;;11.06;55.20;101073.32;1667656;84;21061;-72
2021/11/06 10:45:55;;;;;;;5.03;4.07;;;;;;;11.00;55.38;101084.69;1676618;83;21033;-71
2021/11/06 10:48:26;;;;;;;7.77;5.00;;;;;;;10.97;55.78;101086.36;1673784;83;21518;-72
2021/11/06 10:51:03;;;;;;;3.98;3.62;;;;;;;10.95;55.64;101074.21;1679102;83;21050;-72
2021/11/06 10:53:41;;;;;;;5.10;4.53;;;;;;;10.93;55.52;101078.89;1675047;83;20998;-70
2021/11/06 10:56:31;;;;;;;3.90;3.60;;;;;;;10.89;55.36;101079.73;1676703;83;21081;-69
2021/11/06 10:59:05;;;;;;;5.67;4.40;;;;;;;10.82;55.44;101076.09;1688195;83;21593;-72
2021/11/06 11:01:38;;;;;;;4.63;4.23;;;;;;;10.67;55.47;101068.78;1679891;83;21080;-71
2021/11/06 11:04:15;;;;;;;5.13;4.00;;;;;;;10.57;55.83;101072.16;1675500;83;21552;-69
2021/11/06 11:06:49;;;;;;;8.40;4.60;;;;;;;10.54;56.43;101068.48;1687252;83;21520;-73
2021/11/06 11:09:25;;;;;;;5.37;4.05;;;;;;;10.56;56.08;101070.48;1684200;83;22237;-71
2021/11/06 11:11:58;;;;;;;5.83;4.07;;;;;;;10.54;55.73;101065.00;1680171;83;21010;-70
2021/11/06 11:14:29;;;;;;;8.70;4.40;;;;;;;10.42;55.59;101074.68;1667163;84;21034;-71
2021/11/06 11:17:02;;;;;;;5.73;4.33;;;;;;;10.39;55.90;101070.19;1664977;84;21015;-70
2021/11/06 11:19:41;;;;;;;5.33;4.83;;;;;;;10.35;56.01;101067.03;1662806;84;21573;-70
2021/11/06 11:22:24;;;;;;;4.23;3.83;;;;;;;10.31;55.97;101057.20;1661211;84;21101;-71
2021/11/06 11:24:51;;;;;;;4.67;4.00;;;;;;;10.29;56.08;101061.84;1676552;84;21070;-71
2021/11/06 11:27:17;;;;;;;4.70;4.20;;;;;;;10.29;56.71;101067.17;1683220;84;21110;-71
2021/11/06 11:29:44;;;;;;;4.77;4.27;;;;;;;10.29;56.63;101073.00;1663969;84;21394;-74
2021/11/06 11:32:14;;;;;;;6.93;4.07;;;;;;;10.32;56.72;101060.21;1662070;84;21566;-71
2021/11/06 11:34:44;;;;;;;4.77;3.97;;;;;;;10.36;56.85;101055.38;1664634;84;21514;-70